Time;durP1;ratioP1;P1;durP2;ratioP2;P2;SDS_P1;SDS_P2;PMS_P1;PMS_P2;Temp;Humidity;BMP_temperature;BMP_pressure;BME280_temperature;BME280_humidity;BME280_pressure;Samples;Min_cycle;Max_cycle;Signal;HPM_P1;HPM_P2
2022/09/11 00:00:42;;;;;;;2.77;1.27;;;20.80;65.90;;;;;;5042342;28;20189;-48
2022/09/11 00:03:08;;;;;;;1.50;1.40;;;20.90;66.00;;;;;;5051281;28;20484;-50
2022/09/11 00:05:38;;;;;;;1.73;1.43;;;20.90;65.80;;;;;;5043676;28;20497;-49
2022/09/11 00:08:08;;;;;;;1.30;1.20;;;20.90;65.90;;;;;;5038982;28;20440;-49
2022/09/11 00:10:39;;;;;;;1.90;1.20;;;21.00;65.60;;;;;;5041058;28;20447;-46
2022/09/11 00:13:07;;;;;;;1.67;1.40;;;21.00;65.80;;;;;;5039534;28;20443;-48
2022/09/11 00:15:44;;;;;;;1.43;1.33;;;21.10;65.50;;;;;;5051258;28;20448;-46
2022/09/11 00:18:16;;;;;;;1.30;1.20;;;21.10;65.20;;;;;;5037266;28;20471;-47
2022/09/11 00:20:48;;;;;;;1.47;1.13;;;21.10;65.10;;;;;;5041625;28;20451;-48
2022/09/11 00:23:16;;;;;;;3.70;1.30;;;21.20;65.10;;;;;;5040325;28;20475;-45
2022/09/11 00:25:42;;;;;;;2.07;1.40;;;21.20;65.10;;;;;;5032320;28;20528;-49
2022/09/11 00:28:15;;;;;;;4.07;2.07;;;21.20;64.90;;;;;;5041316;28;20475;-47
2022/09/11 00:30:42;;;;;;;1.90;1.80;;;21.10;65.10;;;;;;5041017;28;20471;-50
2022/09/11 00:33:11;;;;;;;1.40;1.30;;;21.10;65.10;;;;;;5038373;28;20548;-46
2022/09/11 00:35:37;;;;;;;2.73;1.67;;;20.90;65.00;;;;;;5042330;28;20447;-46
2022/09/11 00:38:02;;;;;;;1.93;1.70;;;20.80;65.20;;;;;;5044097;28;20475;-47
2022/09/11 00:40:28;;;;;;;1.37;1.27;;;20.70;65.80;;;;;;5041121;28;20486;-51
2022/09/11 00:42:54;;;;;;;1.43;1.33;;;20.60;66.40;;;;;;5035396;28;20228;-47
2022/09/11 00:45:27;;;;;;;2.80;1.57;;;20.70;66.00;;;;;;5031021;28;20697;-46
2022/09/11 00:47:58;;;;;;;4.10;1.33;;;20.80;66.30;;;;;;5041525;28;20446;-46
2022/09/11 00:50:27;;;;;;;3.13;1.37;;;20.70;66.50;;;;;;5042611;28;20455;-51
2022/09/11 00:53:06;;;;;;;3.80;1.50;;;20.80;66.30;;;;;;5034630;28;20863;-47
2022/09/11 00:55:34;;;;;;;2.63;1.33;;;20.80;66.10;;;;;;5043342;28;20978;-48
2022/09/11 00:58:09;;;;;;;1.63;1.50;;;20.80;66.00;;;;;;5041918;28;20943;-46
2022/09/11 01:00:38;;;;;;;2.30;1.27;;;20.80;65.90;;;;;;5041198;28;21270;-45
2022/09/11 01:03:04;;;;;;;3.13;1.80;;;20.80;66.00;;;;;;5031984;28;20439;-46
2022/09/11 01:05:33;;;;;;;1.80;1.50;;;20.50;66.70;;;;;;5033719;28;20498;-48
2022/09/11 01:08:01;;;;;;;1.50;1.40;;;20.60;66.60;;;;;;5044011;28;20494;-46
2022/09/11 01:11:01;;;;;;;1.60;1.50;;;20.60;66.50;;;;;;5038697;28;20452;-46
2022/09/11 01:13:49;;;;;;;1.37;1.27;;;20.60;66.40;;;;;;5031847;28;20443;-50
2022/09/11 01:16:19;;;;;;;3.63;1.60;;;20.70;66.40;;;;;;5032599;28;20482;-46
2022/09/11 01:19:11;;;;;;;1.73;1.13;;;20.70;66.50;;;;;;5034488;28;20450;-46
2022/09/11 01:21:54;;;;;;;1.97;1.70;;;20.60;66.60;;;;;;5036934;28;20518;-45
2022/09/11 01:24:29;;;;;;;2.10;1.90;;;20.60;66.60;;;;;;5035911;28;20486;-48
2022/09/11 01:27:20;;;;;;;3.73;1.73;;;20.50;66.90;;;;;;5030616;28;20551;-47
2022/09/11 01:30:07;;;;;;;2.30;1.37;;;20.40;67.50;;;;;;5028623;28;21190;-49
2022/09/11 01:32:55;;;;;;;1.30;1.23;;;20.20;67.50;;;;;;5041427;28;20454;-47
2022/09/11 01:35:35;;;;;;;2.87;1.67;;;20.00;68.50;;;;;;5034012;28;20501;-46
2022/09/11 01:38:05;;;;;;;2.67;1.93;;;19.90;68.80;;;;;;5033689;28;20973;-46
2022/09/11 01:40:55;;;;;;;1.83;1.30;;;20.10;69.10;;;;;;5036128;28;20448;-47
2022/09/11 01:43:26;;;;;;;2.70;1.70;;;20.30;68.40;;;;;;5036980;28;20478;-46
2022/09/11 01:45:53;;;;;;;3.63;1.80;;;20.20;68.20;;;;;;5042005;28;21036;-46
2022/09/11 01:48:24;;;;;;;1.77;1.67;;;20.20;68.50;;;;;;5043829;28;20442;-49
2022/09/11 01:50:53;;;;;;;2.63;1.67;;;20.10;68.10;;;;;;5039873;28;20450;-47
2022/09/11 01:53:21;;;;;;;4.10;1.50;;;20.10;68.30;;;;;;5044211;28;20960;-45
2022/09/11 01:56:01;;;;;;;1.57;1.47;;;20.20;68.70;;;;;;5044913;28;20438;-46
2022/09/11 01:58:29;;;;;;;1.50;1.40;;;20.30;68.30;;;;;;5040992;28;20449;-47
2022/09/11 02:01:08;;;;;;;2.00;1.60;;;20.30;67.80;;;;;;5040799;28;20442;-46
2022/09/11 02:03:40;;;;;;;2.43;1.43;;;20.20;68.20;;;;;;5040300;28;20529;-49
2022/09/11 02:06:14;;;;;;;4.37;1.50;;;20.20;68.40;;;;;;5044391;28;20575;-50
2022/09/11 02:08:49;;;;;;;2.40;1.80;;;20.20;68.50;;;;;;5035322;28;20443;-50
2022/09/11 02:11:17;;;;;;;6.27;1.90;;;20.10;68.50;;;;;;5049391;28;20482;-46
2022/09/11 02:14:03;;;;;;;2.53;1.67;;;20.30;68.30;;;;;;5047840;28;20528;-46
2022/09/11 02:16:34;;;;;;;1.40;1.30;;;20.40;67.80;;;;;;5030549;28;20470;-47
2022/09/11 02:19:04;;;;;;;2.93;2.20;;;20.20;67.60;;;;;;5032073;28;20451;-46
2022/09/11 02:21:31;;;;;;;2.20;1.40;;;20.20;68.60;;;;;;5048050;28;20455;-46
2022/09/11 02:23:58;;;;;;;2.57;1.47;;;20.20;68.60;;;;;;5049170;28;20489;-46
2022/09/11 02:26:26;;;;;;;2.07;1.77;;;20.20;68.20;;;;;;5036749;28;20483;-45
2022/09/11 02:28:53;;;;;;;1.73;1.63;;;20.30;68.50;;;;;;5048390;28;20443;-46
2022/09/11 02:31:19;;;;;;;1.67;1.57;;;20.30;68.30;;;;;;5039411;28;20469;-48
2022/09/11 02:33:46;;;;;;;2.03;1.80;;;20.20;68.50;;;;;;5036245;28;20447;-50
2022/09/11 02:36:50;;;;;;;2.70;1.63;;;20.30;68.60;;;;;;5043917;28;20454;-46
2022/09/11 02:39:29;;;;;;;1.80;1.63;;;20.10;68.80;;;;;;5046573;28;20486;-46
2022/09/11 02:42:01;;;;;;;2.90;1.87;;;20.20;68.70;;;;;;5047295;28;20446;-47
2022/09/11 02:44:39;;;;;;;2.63;1.90;;;20.30;68.40;;;;;;5045832;28;20817;-47
2022/09/11 02:47:32;;;;;;;2.73;1.93;;;20.40;68.20;;;;;;5042617;28;20950;-49
2022/09/11 02:50:17;;;;;;;2.70;1.97;;;20.40;68.30;;;;;;5043162;28;20553;-46
2022/09/11 02:52:46;;;;;;;1.80;1.53;;;20.30;68.60;;;;;;5050056;28;20454;-45
2022/09/11 02:55:18;;;;;;;2.00;1.47;;;20.30;68.50;;;;;;5045817;28;20818;-45
2022/09/11 02:58:04;;;;;;;2.63;1.90;;;20.40;68.20;;;;;;5046443;28;20446;-47
2022/09/11 03:00:30;;;;;;;1.70;1.60;;;20.40;68.50;;;;;;5034328;28;20879;-46
2022/09/11 03:02:56;;;;;;;3.63;2.00;;;20.40;68.40;;;;;;5041287;28;20447;-46
2022/09/11 03:05:22;;;;;;;2.90;1.67;;;20.50;68.00;;;;;;5047420;28;20224;-48
2022/09/11 03:07:48;;;;;;;1.93;1.83;;;20.60;67.70;;;;;;5041845;28;20540;-46
2022/09/11 03:10:13;;;;;;;3.40;1.90;;;20.70;67.50;;;;;;5034927;28;20196;-47
2022/09/11 03:12:40;;;;;;;2.33;1.97;;;20.80;67.30;;;;;;5038891;28;20193;-48
2022/09/11 03:15:09;;;;;;;2.67;2.20;;;20.90;67.00;;;;;;5037081;28;20189;-48
2022/09/11 03:17:34;;;;;;;3.23;2.27;;;21.00;66.70;;;;;;5042095;28;20847;-47
2022/09/11 03:20:00;;;;;;;2.70;2.50;;;20.90;67.10;;;;;;5043257;28;20515;-50
2022/09/11 03:22:26;;;;;;;5.23;2.80;;;20.80;67.50;;;;;;5035430;28;20192;-46
2022/09/11 03:24:51;;;;;;;4.20;2.40;;;20.70;67.70;;;;;;5040732;28;20244;-47
2022/09/11 03:27:17;;;;;;;3.93;2.60;;;20.60;68.40;;;;;;5034575;28;20703;-46
2022/09/11 03:29:43;;;;;;;3.10;2.80;;;20.60;68.30;;;;;;5043166;28;20211;-47
2022/09/11 03:32:09;;;;;;;3.43;2.53;;;20.60;68.60;;;;;;5038752;28;20201;-46
2022/09/11 03:34:35;;;;;;;6.37;3.37;;;20.60;68.30;;;;;;5042301;28;20877;-46
2022/09/11 03:37:01;;;;;;;4.23;2.63;;;20.60;68.60;;;;;;5043052;28;20205;-47
2022/09/11 03:39:27;;;;;;;3.20;2.90;;;20.60;68.70;;;;;;5042395;28;20195;-49
2022/09/11 03:41:53;;;;;;;6.53;3.70;;;20.40;69.10;;;;;;5031430;28;20284;-46
2022/09/11 03:44:19;;;;;;;4.30;3.30;;;20.40;69.20;;;;;;5042619;28;20438;-46
2022/09/11 03:46:44;;;;;;;3.40;3.13;;;20.30;69.50;;;;;;5042065;28;20502;-46
2022/09/11 03:49:10;;;;;;;2.77;2.57;;;20.20;69.70;;;;;;5043285;28;20450;-50
2022/09/11 03:51:36;;;;;;;3.50;2.90;;;20.30;69.80;;;;;;5043337;28;20192;-46
2022/09/11 03:54:02;;;;;;;4.63;3.70;;;20.40;69.60;;;;;;5047606;28;20249;-46
2022/09/11 03:56:28;;;;;;;5.27;3.00;;;20.60;69.00;;;;;;5047818;28;20847;-47
2022/09/11 03:58:56;;;;;;;3.20;2.77;;;20.70;68.70;;;;;;5047555;28;20474;-46
2022/09/11 04:01:22;;;;;;;3.90;2.57;;;20.80;68.40;;;;;;5044155;28;20185;-46
2022/09/11 04:03:48;;;;;;;5.13;2.77;;;20.80;68.20;;;;;;5037746;28;20490;-47
2022/09/11 04:06:15;;;;;;;6.73;4.10;;;20.80;68.20;;;;;;5045076;28;20495;-47
2022/09/11 04:08:41;;;;;;;3.30;3.10;;;20.70;68.30;;;;;;5052811;28;20565;-46
2022/09/11 04:11:10;;;;;;;4.00;3.60;;;20.50;68.80;;;;;;5046522;28;21635;-46
2022/09/11 04:13:37;;;;;;;5.43;4.53;;;20.40;69.60;;;;;;5046832;28;20443;-46
2022/09/11 04:16:23;;;;;;;3.80;3.47;;;20.40;69.70;;;;;;5041019;28;20435;-47
2022/09/11 04:18:50;;;;;;;3.80;3.50;;;20.20;70.20;;;;;;5038913;28;20823;-50
2022/09/11 04:21:17;;;;;;;7.27;4.20;;;20.10;70.80;;;;;;5039612;28;20469;-47
2022/09/11 04:23:44;;;;;;;4.20;3.80;;;20.10;70.90;;;;;;5051716;28;20533;-46
2022/09/11 04:26:18;;;;;;;4.37;3.97;;;20.10;71.10;;;;;;5044177;28;20491;-46
2022/09/11 04:28:44;;;;;;;4.10;3.43;;;20.20;70.70;;;;;;5044889;28;20470;-46
2022/09/11 04:31:11;;;;;;;3.73;3.37;;;20.30;70.60;;;;;;5036940;28;20918;-47
2022/09/11 04:33:42;;;;;;;3.90;3.60;;;20.30;69.90;;;;;;5038927;28;20477;-53
2022/09/11 04:36:11;;;;;;;4.40;3.80;;;20.30;70.10;;;;;;5032042;28;20444;-49
2022/09/11 04:38:39;;;;;;;3.97;3.67;;;20.20;70.40;;;;;;5045446;28;20439;-47
2022/09/11 04:41:05;;;;;;;4.00;3.63;;;20.40;70.20;;;;;;5044572;28;20443;-47
2022/09/11 04:43:33;;;;;;;4.00;3.53;;;20.40;70.00;;;;;;5040033;28;20451;-48
2022/09/11 04:46:03;;;;;;;4.80;4.20;;;20.40;70.00;;;;;;5030524;28;20607;-49
2022/09/11 04:48:29;;;;;;;5.33;3.80;;;20.40;69.60;;;;;;5037893;28;20443;-47
2022/09/11 04:51:00;;;;;;;3.83;3.53;;;20.50;69.70;;;;;;5034779;28;20458;-49
2022/09/11 04:53:27;;;;;;;4.17;3.83;;;20.60;69.60;;;;;;5036974;28;20215;-48
2022/09/11 04:56:11;;;;;;;5.90;4.10;;;20.60;69.20;;;;;;5029873;28;20474;-47
2022/09/11 04:58:36;;;;;;;5.53;3.77;;;20.60;69.20;;;;;;5032941;28;20450;-48
2022/09/11 05:01:10;;;;;;;4.07;3.77;;;20.50;69.50;;;;;;5031912;28;20927;-47
2022/09/11 05:03:36;;;;;;;4.53;4.13;;;20.60;69.50;;;;;;5041464;28;20193;-47
2022/09/11 05:06:06;;;;;;;4.30;3.80;;;20.60;69.30;;;;;;5035241;28;20497;-52
2022/09/11 05:08:32;;;;;;;4.50;4.10;;;20.70;69.10;;;;;;5039103;28;20643;-50
2022/09/11 05:10:59;;;;;;;4.33;4.03;;;20.50;69.40;;;;;;5039723;28;20458;-51
2022/09/11 05:13:26;;;;;;;6.40;4.90;;;20.60;69.60;;;;;;5035176;28;20446;-52
2022/09/11 05:15:52;;;;;;;4.70;4.30;;;20.50;69.60;;;;;;5035884;28;20443;-50
2022/09/11 05:18:18;;;;;;;5.77;4.20;;;20.30;70.50;;;;;;5032715;28;20448;-51
2022/09/11 05:20:44;;;;;;;7.77;4.80;;;20.50;69.80;;;;;;5039191;28;20443;-51
2022/09/11 05:23:12;;;;;;;5.27;4.87;;;20.50;69.80;;;;;;5042868;28;20185;-51
2022/09/11 05:25:38;;;;;;;5.03;4.53;;;20.50;69.80;;;;;;5033976;28;20241;-52
2022/09/11 05:28:04;;;;;;;5.23;4.67;;;20.50;70.00;;;;;;5041366;28;20462;-51
2022/09/11 05:30:30;;;;;;;5.40;4.90;;;20.50;70.00;;;;;;5040604;28;20200;-51
2022/09/11 05:32:55;;;;;;;5.37;4.87;;;20.50;69.80;;;;;;5040208;28;20881;-50
2022/09/11 05:35:25;;;;;;;11.30;5.17;;;20.50;69.70;;;;;;5037323;28;20189;-52
2022/09/11 05:37:50;;;;;;;5.60;3.83;;;20.50;70.00;;;;;;5041124;28;20205;-51
2022/09/11 05:40:16;;;;;;;5.50;5.10;;;20.50;70.50;;;;;;5037734;28;20446;-51
2022/09/11 05:42:42;;;;;;;5.07;4.57;;;20.60;69.80;;;;;;5029920;28;20195;-47
2022/09/11 05:45:07;;;;;;;6.60;4.83;;;20.60;69.30;;;;;;5035808;28;20226;-47
2022/09/11 05:47:33;;;;;;;7.30;4.73;;;20.50;69.90;;;;;;5040395;28;20205;-47
2022/09/11 05:49:59;;;;;;;7.93;5.43;;;20.60;69.60;;;;;;5044347;28;20473;-47
2022/09/11 05:52:24;;;;;;;5.80;5.20;;;20.60;69.50;;;;;;5042449;28;20267;-47
2022/09/11 05:54:52;;;;;;;5.97;5.47;;;20.60;69.30;;;;;;5048293;28;20207;-48
2022/09/11 05:57:18;;;;;;;8.20;7.00;;;20.50;69.20;;;;;;5047242;28;20204;-47
2022/09/11 05:59:44;;;;;;;6.60;6.10;;;20.40;70.30;;;;;;5033881;28;20475;-48
2022/09/11 06:02:10;;;;;;;6.90;6.30;;;20.50;69.80;;;;;;5043327;28;20491;-48
2022/09/11 06:04:36;;;;;;;6.43;5.80;;;20.40;70.20;;;;;;5043731;28;20670;-48
2022/09/11 06:07:01;;;;;;;6.03;5.60;;;20.50;69.50;;;;;;5051807;28;20442;-47
2022/09/11 06:09:27;;;;;;;5.40;5.00;;;20.40;70.00;;;;;;5044634;28;20651;-47
2022/09/11 06:11:52;;;;;;;5.70;5.20;;;20.40;70.10;;;;;;5052149;28;20200;-46
2022/09/11 06:14:18;;;;;;;5.43;5.03;;;20.60;69.80;;;;;;5043261;28;20197;-48
2022/09/11 06:16:44;;;;;;;5.40;4.90;;;20.70;69.20;;;;;;5044380;28;20247;-52
2022/09/11 06:19:09;;;;;;;5.37;4.87;;;20.80;68.40;;;;;;5049720;28;20786;-48
2022/09/11 06:21:35;;;;;;;6.60;5.33;;;20.70;68.70;;;;;;5046239;28;20250;-51
2022/09/11 06:24:01;;;;;;;9.73;5.33;;;20.60;69.30;;;;;;5048203;28;20692;-48
2022/09/11 06:26:28;;;;;;;5.70;5.17;;;20.70;69.30;;;;;;5042291;28;20541;-51
2022/09/11 06:28:55;;;;;;;5.90;5.50;;;20.80;68.80;;;;;;5050979;28;20249;-50
2022/09/11 06:31:23;;;;;;;6.73;5.30;;;20.80;68.80;;;;;;5043926;28;20506;-51
2022/09/11 06:33:50;;;;;;;7.10;5.40;;;20.70;68.70;;;;;;5038501;28;20459;-51
2022/09/11 06:36:18;;;;;;;5.93;5.33;;;20.70;69.30;;;;;;5044763;28;20439;-48
2022/09/11 06:38:44;;;;;;;6.10;5.47;;;20.70;69.10;;;;;;5050593;28;20458;-47
2022/09/11 06:41:13;;;;;;;7.57;6.17;;;20.60;69.10;;;;;;5052607;28;20451;-48
2022/09/11 06:43:40;;;;;;;7.00;6.50;;;20.70;69.50;;;;;;5052325;28;20481;-51
2022/09/11 06:46:09;;;;;;;7.30;5.73;;;20.60;69.70;;;;;;5052429;28;20505;-51
2022/09/11 06:48:34;;;;;;;6.33;5.73;;;20.70;69.60;;;;;;5053307;28;20466;-50
2022/09/11 06:51:03;;;;;;;6.00;5.50;;;20.70;70.00;;;;;;5052897;28;20447;-51
2022/09/11 06:53:29;;;;;;;6.17;5.67;;;20.70;69.80;;;;;;5052079;28;20209;-51
2022/09/11 06:56:03;;;;;;;6.37;5.77;;;20.70;69.50;;;;;;5052343;28;20994;-47
2022/09/11 06:58:30;;;;;;;6.90;6.33;;;20.80;69.50;;;;;;5053191;28;20807;-47
2022/09/11 07:01:19;;;;;;;7.87;7.03;;;20.80;69.40;;;;;;5052706;28;20461;-50
2022/09/11 07:03:47;;;;;;;6.97;6.37;;;20.80;69.50;;;;;;5051932;28;20897;-47
2022/09/11 07:06:15;;;;;;;6.73;6.13;;;20.60;69.90;;;;;;5049448;28;20548;-52
2022/09/11 07:08:40;;;;;;;7.47;6.77;;;20.60;70.20;;;;;;5052694;28;20910;-50
2022/09/11 07:11:07;;;;;;;6.90;6.20;;;20.60;70.50;;;;;;5052462;28;20431;-51
2022/09/11 07:13:33;;;;;;;7.40;6.10;;;20.60;70.60;;;;;;5052424;28;20203;-48
2022/09/11 07:16:00;;;;;;;6.67;6.17;;;20.60;70.40;;;;;;5050611;28;20822;-51
2022/09/11 07:18:32;;;;;;;7.87;7.13;;;20.80;70.30;;;;;;5052696;28;20430;-48
2022/09/11 07:20:58;;;;;;;8.67;7.20;;;20.70;70.20;;;;;;5052047;28;20997;-47
2022/09/11 07:23:24;;;;;;;6.70;6.10;;;20.70;70.20;;;;;;5052844;28;20458;-48
2022/09/11 07:25:50;;;;;;;7.33;6.40;;;20.70;70.00;;;;;;5050413;28;20523;-49
2022/09/11 07:28:15;;;;;;;7.27;6.57;;;20.80;69.90;;;;;;5052260;28;20207;-51
2022/09/11 07:30:41;;;;;;;7.50;6.77;;;20.90;69.90;;;;;;5052057;28;20253;-47
2022/09/11 07:33:06;;;;;;;9.50;7.33;;;21.00;69.50;;;;;;5041249;28;20275;-52
2022/09/11 07:35:35;;;;;;;6.43;5.93;;;21.10;69.20;;;;;;5051907;28;20639;-48
2022/09/11 07:38:01;;;;;;;7.50;6.80;;;21.10;69.20;;;;;;5048226;28;20245;-50
2022/09/11 07:40:26;;;;;;;7.00;6.40;;;21.00;69.40;;;;;;5051851;28;20800;-50
2022/09/11 07:42:52;;;;;;;8.57;7.60;;;21.20;69.10;;;;;;5052475;28;20228;-48
2022/09/11 07:45:18;;;;;;;7.17;6.03;;;21.30;69.10;;;;;;5052042;28;20231;-52
2022/09/11 07:47:43;;;;;;;8.00;7.13;;;21.40;69.10;;;;;;5050857;28;20189;-51
2022/09/11 07:50:10;;;;;;;6.40;5.90;;;21.40;69.00;;;;;;5051440;28;20189;-47
2022/09/11 07:52:35;;;;;;;6.87;6.27;;;21.30;69.10;;;;;;5049877;28;20192;-50
2022/09/11 07:55:02;;;;;;;9.20;6.40;;;21.20;69.00;;;;;;5050448;28;20470;-47
2022/09/11 07:57:29;;;;;;;6.93;6.33;;;21.20;68.80;;;;;;5051455;28;20524;-47
2022/09/11 07:59:55;;;;;;;8.27;6.80;;;21.20;68.60;;;;;;5050075;28;20426;-51
2022/09/11 08:02:21;;;;;;;6.57;5.97;;;21.30;69.00;;;;;;5051937;28;20427;-52
2022/09/11 08:04:46;;;;;;;7.23;6.70;;;21.30;68.80;;;;;;5049317;28;20508;-50
2022/09/11 08:07:12;;;;;;;6.73;6.17;;;21.40;68.90;;;;;;5051554;28;20501;-47
2022/09/11 08:09:38;;;;;;;6.93;6.23;;;21.40;67.90;;;;;;5051663;28;20232;-49
2022/09/11 08:12:04;;;;;;;8.53;7.13;;;21.30;68.20;;;;;;5051231;28;20922;-50
2022/09/11 08:14:30;;;;;;;7.27;5.67;;;21.50;68.20;;;;;;5050600;28;20201;-48
2022/09/11 08:16:56;;;;;;;7.17;6.53;;;21.60;67.70;;;;;;5050830;28;20427;-50
2022/09/11 08:19:22;;;;;;;7.77;6.37;;;21.60;67.70;;;;;;5051986;28;20193;-49
2022/09/11 08:21:49;;;;;;;7.20;6.60;;;21.70;67.50;;;;;;5051065;28;20189;-45
2022/09/11 08:24:16;;;;;;;7.53;6.83;;;21.80;66.80;;;;;;5050422;28;20458;-47
2022/09/11 08:26:42;;;;;;;8.03;6.43;;;21.80;66.40;;;;;;5047763;28;20486;-47
2022/09/11 08:29:08;;;;;;;7.60;6.90;;;21.60;66.30;;;;;;5051355;28;20431;-49
2022/09/11 08:31:35;;;;;;;22.63;7.60;;;21.70;66.50;;;;;;5050809;28;20644;-47
2022/09/11 08:34:00;;;;;;;7.70;6.90;;;21.80;66.70;;;;;;5041415;28;20448;-50
2022/09/11 08:36:27;;;;;;;7.10;6.40;;;21.80;65.70;;;;;;5049029;28;20807;-48
2022/09/11 08:38:53;;;;;;;11.40;6.30;;;21.90;65.30;;;;;;5051212;28;20280;-48
2022/09/11 08:41:47;;;;;;;8.23;7.53;;;22.00;65.50;;;;;;5050757;28;21208;-49
2022/09/11 08:44:38;;;;;;;7.30;6.60;;;22.00;64.70;;;;;;5051071;28;20473;-47
2022/09/11 08:47:07;;;;;;;6.60;6.00;;;22.00;63.90;;;;;;5049186;28;20470;-51
2022/09/11 08:49:42;;;;;;;6.83;6.33;;;22.00;64.50;;;;;;5050760;28;20431;-48
2022/09/11 08:52:11;;;;;;;7.43;6.57;;;22.00;64.40;;;;;;5050667;28;20864;-47
2022/09/11 08:54:39;;;;;;;7.37;6.63;;;22.20;64.30;;;;;;5049276;28;20512;-50
2022/09/11 08:57:23;;;;;;;7.60;6.90;;;22.10;63.20;;;;;;5049022;28;20785;-48
2022/09/11 09:00:10;;;;;;;6.33;5.83;;;22.20;63.30;;;;;;5050428;28;20431;-49
2022/09/11 09:03:01;;;;;;;7.37;6.73;;;22.30;63.10;;;;;;5050790;28;20431;-51
2022/09/11 09:05:34;;;;;;;6.47;5.97;;;22.40;62.60;;;;;;5050055;28;20486;-48
2022/09/11 09:08:07;;;;;;;8.37;6.70;;;22.50;62.50;;;;;;5049878;28;20478;-48
2022/09/11 09:10:46;;;;;;;6.93;6.43;;;22.30;62.10;;;;;;5049888;28;20446;-47
2022/09/11 09:13:40;;;;;;;6.57;5.67;;;22.30;62.30;;;;;;5050687;28;20434;-45
2022/09/11 09:16:14;;;;;;;6.93;6.10;;;22.50;61.60;;;;;;5049383;28;20964;-45
2022/09/11 09:18:49;;;;;;;6.30;5.80;;;22.60;61.20;;;;;;5049206;28;20446;-50
2022/09/11 09:21:30;;;;;;;6.50;5.90;;;22.80;61.00;;;;;;5047022;28;20848;-50
2022/09/11 09:24:00;;;;;;;6.43;5.90;;;22.90;59.90;;;;;;5050612;28;20466;-50
2022/09/11 09:26:34;;;;;;;6.63;6.03;;;23.00;60.00;;;;;;5049436;28;21016;-48
2022/09/11 09:29:03;;;;;;;6.97;6.20;;;22.90;60.30;;;;;;5050516;28;20771;-49
2022/09/11 09:31:30;;;;;;;7.30;6.37;;;22.80;60.40;;;;;;5048812;28;20516;-47
2022/09/11 09:34:03;;;;;;;7.03;6.33;;;22.80;61.10;;;;;;5040162;28;20431;-48
2022/09/11 09:36:51;;;;;;;5.70;5.20;;;22.80;60.80;;;;;;5049044;28;20423;-48
2022/09/11 09:39:18;;;;;;;6.13;5.53;;;22.80;60.80;;;;;;5050515;28;20430;-49
2022/09/11 09:42:32;;;;;;;6.03;5.57;;;22.90;60.50;;;;;;5048669;28;20442;-46
2022/09/11 09:45:16;;;;;;;6.30;5.63;;;23.00;60.20;;;;;;5027350;28;20491;-49
2022/09/11 09:47:46;;;;;;;6.00;5.50;;;23.00;60.10;;;;;;5043525;28;20526;-46
2022/09/11 09:50:23;;;;;;;6.07;5.50;;;23.00;59.70;;;;;;5049853;28;20836;-45
2022/09/11 09:52:49;;;;;;;6.10;5.60;;;23.00;60.70;;;;;;5049169;28;20434;-47
2022/09/11 09:55:17;;;;;;;4.90;4.50;;;23.30;60.20;;;;;;5049799;28;20504;-48
2022/09/11 09:57:43;;;;;;;6.90;5.23;;;23.60;59.80;;;;;;5048573;28;20526;-45
2022/09/11 10:00:09;;;;;;;6.73;5.30;;;23.80;59.30;;;;;;5047195;28;20431;-49
2022/09/11 10:02:41;;;;;;;6.07;5.50;;;23.90;58.30;;;;;;5050180;28;20450;-48
2022/09/11 10:05:26;;;;;;;5.40;4.90;;;24.00;57.80;;;;;;5049377;28;20263;-45
2022/09/11 10:07:53;;;;;;;5.50;5.10;;;24.10;57.30;;;;;;5049973;28;20423;-48
2022/09/11 10:10:28;;;;;;;6.20;5.70;;;24.10;57.10;;;;;;5048363;28;20531;-49
2022/09/11 10:12:56;;;;;;;5.03;4.73;;;24.20;56.90;;;;;;5047981;28;20446;-47
2022/09/11 10:15:24;;;;;;;5.10;4.63;;;24.20;56.30;;;;;;5047998;28;20427;-50
2022/09/11 10:17:50;;;;;;;5.27;4.63;;;24.30;55.90;;;;;;5049847;28;20442;-48
2022/09/11 10:20:22;;;;;;;4.90;4.33;;;24.40;55.60;;;;;;5049520;28;20435;-47
2022/09/11 10:22:52;;;;;;;4.50;4.10;;;24.40;55.50;;;;;;5048659;28;20447;-49
2022/09/11 10:25:21;;;;;;;4.20;3.90;;;24.50;54.70;;;;;;5049362;28;20483;-50
2022/09/11 10:28:09;;;;;;;4.40;4.10;;;24.50;54.70;;;;;;5049581;28;20438;-50
2022/09/11 10:30:41;;;;;;;4.50;4.03;;;24.60;55.00;;;;;;5049368;28;20473;-47
2022/09/11 10:33:36;;;;;;;4.77;4.47;;;24.60;55.30;;;;;;5043513;28;20470;-48
2022/09/11 10:36:05;;;;;;;5.37;4.40;;;25.00;55.50;;;;;;5046831;28;20512;-46
2022/09/11 10:38:43;;;;;;;4.67;3.90;;;25.10;52.70;;;;;;5048868;28;20451;-47
2022/09/11 10:41:09;;;;;;;4.93;4.50;;;25.20;52.10;;;;;;5049093;28;20945;-49
2022/09/11 10:43:49;;;;;;;4.87;4.33;;;25.20;50.60;;;;;;5048706;28;20470;-47
2022/09/11 10:46:17;;;;;;;4.60;4.20;;;25.30;50.70;;;;;;5047744;28;20304;-48
2022/09/11 10:48:54;;;;;;;5.70;5.20;;;25.50;51.10;;;;;;5050559;28;20419;-45
2022/09/11 10:51:21;;;;;;;6.13;5.63;;;25.40;51.20;;;;;;5050257;28;20438;-46
2022/09/11 10:54:06;;;;;;;6.43;5.77;;;24.90;53.20;;;;;;5045742;28;20443;-49
2022/09/11 10:56:44;;;;;;;5.53;5.13;;;24.80;54.00;;;;;;5052468;28;20431;-46
2022/09/11 10:59:17;;;;;;;5.97;5.43;;;24.80;54.50;;;;;;5052360;28;20462;-47
2022/09/11 11:01:43;;;;;;;6.10;5.50;;;24.80;54.80;;;;;;5050475;28;20517;-46
2022/09/11 11:04:12;;;;;;;5.63;5.23;;;24.80;54.90;;;;;;5052996;28;20473;-46
2022/09/11 11:07:09;;;;;;;6.20;5.70;;;24.90;54.50;;;;;;5045240;28;20581;-48
2022/09/11 11:09:35;;;;;;;5.70;5.30;;;24.90;54.10;;;;;;5037335;28;20456;-48
2022/09/11 11:12:10;;;;;;;5.70;5.30;;;24.80;53.90;;;;;;5050882;28;20443;-51
2022/09/11 11:15:02;;;;;;;6.00;5.50;;;24.80;54.30;;;;;;5063698;28;20317;-49
2022/09/11 11:18:05;;;;;;;5.10;4.70;;;24.80;54.60;;;;;;5053507;28;20435;-52
2022/09/11 11:20:54;;;;;;;5.70;5.07;;;24.80;53.50;;;;;;5050403;28;20532;-49
2022/09/11 11:23:23;;;;;;;5.30;4.90;;;24.90;53.30;;;;;;5046984;28;20439;-48
2022/09/11 11:26:23;;;;;;;6.20;5.70;;;25.00;53.10;;;;;;5050546;28;20489;-48
2022/09/11 11:28:58;;;;;;;5.20;4.80;;;25.10;52.10;;;;;;5040379;28;20444;-50
2022/09/11 11:32:00;;;;;;;4.80;4.27;;;25.40;50.50;;;;;;5048269;28;20470;-46
2022/09/11 11:35:03;;;;;;;5.63;5.20;;;25.80;51.40;;;;;;5046221;28;20443;-47
2022/09/11 11:37:35;;;;;;;4.60;4.27;;;26.20;51.20;;;;;;5043185;28;20542;-50
2022/09/11 11:40:06;;;;;;;4.17;3.87;;;26.50;50.70;;;;;;5046467;28;20445;-51
2022/09/11 11:42:42;;;;;;;4.43;4.10;;;26.80;50.20;;;;;;5052444;28;20855;-49
2022/09/11 11:45:15;;;;;;;5.43;5.03;;;27.00;49.30;;;;;;5050152;28;20490;-50
2022/09/11 11:47:43;;;;;;;5.50;5.00;;;27.20;47.70;;;;;;5038793;28;20462;-48
2022/09/11 11:50:27;;;;;;;5.70;5.10;;;27.10;47.90;;;;;;5049455;28;20434;-50
2022/09/11 11:53:11;;;;;;;4.80;4.40;;;27.10;48.40;;;;;;5046979;28;20544;-48
2022/09/11 11:55:55;;;;;;;5.17;4.77;;;26.80;49.30;;;;;;5033466;28;20460;-50
2022/09/11 11:58:52;;;;;;;5.13;3.90;;;26.80;49.20;;;;;;5048063;28;20500;-50
2022/09/11 12:01:31;;;;;;;4.17;3.87;;;26.80;49.70;;;;;;5039961;28;20455;-50
2022/09/11 12:04:27;;;;;;;5.40;4.10;;;27.10;49.80;;;;;;5039817;28;20509;-50
2022/09/11 12:06:53;;;;;;;4.40;4.10;;;27.40;46.80;;;;;;5044093;28;20482;-51
2022/09/11 12:09:19;;;;;;;4.90;4.40;;;27.50;45.60;;;;;;5049871;28;20482;-50
2022/09/11 12:11:48;;;;;;;4.43;4.07;;;27.70;45.10;;;;;;5048435;28;20656;-48
2022/09/11 12:14:27;;;;;;;4.03;3.73;;;27.70;45.20;;;;;;5047871;28;20287;-50
2022/09/11 12:16:55;;;;;;;4.27;3.87;;;27.80;45.00;;;;;;5037532;28;20478;-50
2022/09/11 12:19:24;;;;;;;4.63;4.23;;;27.60;44.60;;;;;;5050540;28;20785;-50
2022/09/11 12:21:52;;;;;;;4.60;4.30;;;27.70;46.40;;;;;;5042384;28;20811;-50
2022/09/11 12:24:43;;;;;;;4.70;4.40;;;27.90;44.90;;;;;;5037400;28;20480;-50
2022/09/11 12:27:33;;;;;;;5.67;4.10;;;28.10;44.50;;;;;;5041347;28;20451;-51
2022/09/11 12:30:21;;;;;;;3.80;3.60;;;28.30;44.40;;;;;;5048010;28;20540;-50
2022/09/11 12:32:54;;;;;;;3.73;3.53;;;28.40;45.30;;;;;;5043831;28;20455;-49
2022/09/11 12:35:52;;;;;;;5.03;4.63;;;28.40;44.40;;;;;;5048356;28;20473;-49
2022/09/11 12:38:50;;;;;;;3.60;3.37;;;28.50;43.80;;;;;;5037850;28;20447;-50
2022/09/11 12:41:30;;;;;;;5.07;4.63;;;28.60;42.30;;;;;;5043273;28;20994;-50
2022/09/11 12:43:56;;;;;;;4.03;3.73;;;28.50;41.90;;;;;;5043761;28;20459;-49
2022/09/11 12:46:26;;;;;;;4.10;3.83;;;28.40;43.10;;;;;;5039556;28;20962;-50
2022/09/11 12:49:04;;;;;;;4.50;4.20;;;28.60;43.40;;;;;;5047678;28;20508;-50
2022/09/11 12:51:37;;;;;;;5.10;4.80;;;28.60;43.00;;;;;;5047435;28;20447;-50
2022/09/11 12:54:19;;;;;;;4.50;4.20;;;28.50;42.20;;;;;;5043511;28;20442;-51
2022/09/11 12:57:07;;;;;;;4.40;4.10;;;28.60;42.40;;;;;;5044032;28;20951;-50
2022/09/11 12:59:42;;;;;;;4.57;4.20;;;28.50;42.40;;;;;;5038536;28;20944;-47
2022/09/11 13:02:38;;;;;;;5.47;5.00;;;28.40;42.40;;;;;;5047638;28;20996;-50
2022/09/11 13:05:14;;;;;;;5.10;4.60;;;28.20;42.80;;;;;;5034520;28;20547;-51
2022/09/11 13:07:44;;;;;;;5.33;4.93;;;28.10;43.80;;;;;;5047958;28;20443;-51
2022/09/11 13:10:32;;;;;;;5.23;4.80;;;28.10;43.00;;;;;;5043549;28;20447;-50